createdAt,value
2023-01-09T00:02:22.659Z,46.90
2023-01-09T00:04:51.698Z,46.90
2023-01-09T00:07:19.438Z,46.90
2023-01-09T00:09:47.174Z,46.80
2023-01-09T00:12:14.860Z,46.80
2023-01-09T00:14:42.522Z,46.80
2023-01-09T00:17:10.319Z,46.70
2023-01-09T00:19:38.403Z,46.60
2023-01-09T00:22:09.464Z,46.60
2023-01-09T00:24:37.592Z,46.60
2023-01-09T00:27:05.653Z,46.60
2023-01-09T00:29:33.840Z,46.50
2023-01-09T00:32:01.524Z,46.50
2023-01-09T00:34:29.608Z,46.40
2023-01-09T00:36:57.770Z,46.40
2023-01-09T00:39:26.848Z,46.40
2023-01-09T00:41:55.386Z,46.50
2023-01-09T00:44:24.168Z,46.50
2023-01-09T00:46:53.953Z,46.50
2023-01-09T00:49:21.793Z,46.50
2023-01-09T00:51:49.653Z,46.50
2023-01-09T00:54:20.477Z,46.50
2023-01-09T00:56:51.443Z,46.40
2023-01-09T00:59:19.139Z,46.40
2023-01-09T01:01:47.021Z,47.00
2023-01-09T01:04:32.345Z,46.40
2023-01-09T01:07:17.868Z,46.30
2023-01-09T01:09:45.572Z,46.20
2023-01-09T01:12:14.588Z,46.20
2023-01-09T01:14:42.299Z,46.00
2023-01-09T01:17:10.173Z,46.10
2023-01-09T01:19:38.078Z,46.00
2023-01-09T01:22:05.942Z,46.00
2023-01-09T01:24:33.775Z,46.00
2023-01-09T01:27:01.779Z,45.80
2023-01-09T01:29:30.910Z,45.90
2023-01-09T01:31:58.819Z,45.90
2023-01-09T01:34:27.154Z,45.80
2023-01-09T01:36:55.022Z,45.80
2023-01-09T01:39:22.864Z,45.80
2023-01-09T01:41:50.696Z,45.70
2023-01-09T01:44:58.711Z,45.80
2023-01-09T01:47:32.214Z,45.70
2023-01-09T01:50:00.372Z,45.70
2023-01-09T01:52:28.341Z,45.60
2023-01-09T01:54:56.345Z,45.60
2023-01-09T01:57:24.237Z,45.50
2023-01-09T01:59:54.725Z,45.50
2023-01-09T02:02:26.573Z,45.50
2023-01-09T02:04:54.837Z,45.50
2023-01-09T02:07:22.573Z,45.50
2023-01-09T02:09:50.236Z,45.50
2023-01-09T02:12:19.097Z,45.40
2023-01-09T02:14:46.843Z,45.50
2023-01-09T02:17:20.079Z,45.40
2023-01-09T02:20:13.933Z,45.30
2023-01-09T02:22:45.829Z,45.30
2023-01-09T02:25:44.031Z,45.40
2023-01-09T02:28:39.394Z,45.30
2023-01-09T02:31:09.142Z,45.30
2023-01-09T02:33:43.247Z,45.30
2023-01-09T02:36:13.432Z,45.30
2023-01-09T02:38:46.863Z,45.30
2023-01-09T02:41:15.824Z,45.20
2023-01-09T02:43:43.537Z,45.30
2023-01-09T02:46:21.188Z,45.30
2023-01-09T02:48:50.484Z,45.30
2023-01-09T02:51:22.621Z,45.20
2023-01-09T02:54:00.618Z,45.20
2023-01-09T02:56:45.460Z,45.20
2023-01-09T02:59:25.671Z,45.30
2023-01-09T03:02:09.137Z,45.20
2023-01-09T03:04:46.337Z,45.20
2023-01-09T03:07:17.673Z,45.10
2023-01-09T03:09:45.327Z,45.10
2023-01-09T03:12:16.402Z,45.10
2023-01-09T03:14:46.856Z,45.10
2023-01-09T03:17:17.490Z,45.10
2023-01-09T03:19:45.133Z,45.20
2023-01-09T03:22:12.892Z,45.20
2023-01-09T03:24:40.736Z,45.20
2023-01-09T03:27:08.573Z,45.10
2023-01-09T03:29:37.283Z,45.20
2023-01-09T03:32:05.152Z,45.10
2023-01-09T03:34:34.140Z,45.20
2023-01-09T03:37:01.976Z,45.20
2023-01-09T03:39:29.742Z,45.20
2023-01-09T03:41:57.523Z,45.30
2023-01-09T03:44:25.385Z,45.20
2023-01-09T03:46:53.127Z,45.20
2023-01-09T03:49:21.535Z,45.20
2023-01-09T03:51:50.518Z,45.20
2023-01-09T03:54:18.170Z,45.30
2023-01-09T03:56:45.820Z,45.20
2023-01-09T03:59:13.533Z,45.30
2023-01-09T04:01:41.322Z,45.30
2023-01-09T04:04:09.076Z,45.30
2023-01-09T04:06:36.828Z,45.30
2023-01-09T04:09:05.902Z,45.30
2023-01-09T04:11:33.616Z,45.30
2023-01-09T04:14:01.290Z,45.30
2023-01-09T04:16:29.022Z,45.30
2023-01-09T04:18:56.708Z,45.40
2023-01-09T04:21:24.479Z,45.30
2023-01-09T04:23:52.135Z,45.30
2023-01-09T04:26:21.200Z,45.30
2023-01-09T04:28:48.941Z,45.40
2023-01-09T04:31:16.633Z,45.30
2023-01-09T04:33:44.294Z,45.40
2023-01-09T04:36:12.028Z,45.40
2023-01-09T04:38:39.787Z,45.50
2023-01-09T04:41:07.509Z,45.50
2023-01-09T04:43:36.554Z,45.40
2023-01-09T04:46:04.321Z,45.50
2023-01-09T04:48:32.129Z,45.50
2023-01-09T04:50:59.796Z,45.50
2023-01-09T04:53:27.491Z,45.40
2023-01-09T04:55:55.171Z,45.50
2023-01-09T04:58:22.992Z,45.50
2023-01-09T05:00:52.543Z,45.50
2023-01-09T05:03:20.305Z,45.50
2023-01-09T05:05:48.057Z,45.50
2023-01-09T05:08:15.776Z,45.50
2023-01-09T05:10:43.455Z,45.60
2023-01-09T05:13:11.910Z,45.60
2023-01-09T05:15:39.562Z,45.60
2023-01-09T05:18:08.603Z,45.60
2023-01-09T05:20:36.953Z,45.60
2023-01-09T05:23:04.624Z,45.70
2023-01-09T05:25:32.288Z,45.60
2023-01-09T05:28:01.304Z,45.70
2023-01-09T05:30:29.199Z,45.70
2023-01-09T05:32:56.912Z,45.70
2023-01-09T05:35:26.019Z,45.60
2023-01-09T05:37:53.657Z,45.80
2023-01-09T05:40:23.135Z,45.70
2023-01-09T05:42:54.327Z,45.70
2023-01-09T05:45:22.084Z,45.70
2023-01-09T05:47:49.732Z,45.70
2023-01-09T05:50:17.508Z,45.70
2023-01-09T05:52:46.466Z,45.70
2023-01-09T05:55:14.234Z,45.70
2023-01-09T05:57:41.907Z,45.80
2023-01-09T06:00:10.851Z,45.80
2023-01-09T06:02:38.609Z,45.80
2023-01-09T06:05:07.377Z,45.80
2023-01-09T06:07:39.126Z,45.80
2023-01-09T06:10:09.466Z,45.80
2023-01-09T06:12:37.119Z,45.80
2023-01-09T06:15:08.017Z,45.90
2023-01-09T06:17:36.476Z,45.90
2023-01-09T06:20:04.432Z,45.90
2023-01-09T06:22:32.127Z,45.90
2023-01-09T06:24:59.800Z,45.90
2023-01-09T06:27:28.808Z,45.90
2023-01-09T06:29:56.491Z,45.80
2023-01-09T06:32:24.145Z,45.90
2023-01-09T06:34:51.795Z,45.90
2023-01-09T06:37:19.485Z,45.90
2023-01-09T06:39:47.536Z,46.00
2023-01-09T06:42:15.191Z,45.90
2023-01-09T06:44:44.187Z,46.00
2023-01-09T06:47:11.936Z,45.90
2023-01-09T06:49:39.581Z,45.90
2023-01-09T06:52:07.670Z,45.90
2023-01-09T06:54:35.519Z,46.00
2023-01-09T06:57:03.202Z,45.90
2023-01-09T06:59:30.929Z,45.90
2023-01-09T07:01:59.989Z,45.90
2023-01-09T07:04:27.735Z,45.90
2023-01-09T07:06:55.433Z,46.00
2023-01-09T07:09:23.098Z,46.00
2023-01-09T07:11:50.735Z,46.00
2023-01-09T07:14:18.381Z,46.00
2023-01-09T07:16:46.105Z,46.00
2023-01-09T07:19:15.066Z,46.00
2023-01-09T07:21:42.733Z,46.10
2023-01-09T07:24:10.441Z,46.20
2023-01-09T07:26:38.140Z,46.30
2023-01-09T07:29:05.826Z,46.30
2023-01-09T07:31:33.496Z,46.30
2023-01-09T07:34:01.185Z,46.20
2023-01-09T07:36:30.183Z,46.20
2023-01-09T07:38:57.826Z,46.20
2023-01-09T07:41:25.491Z,46.20
2023-01-09T07:43:53.141Z,46.20
2023-01-09T07:46:20.860Z,46.20
2023-01-09T07:48:48.621Z,46.20
2023-01-09T07:51:16.263Z,46.20
2023-01-09T07:53:45.274Z,46.30
2023-01-09T07:56:13.020Z,46.30
2023-01-09T07:58:40.890Z,46.30
2023-01-09T08:01:08.584Z,46.30
2023-01-09T08:03:36.247Z,46.30
2023-01-09T08:06:03.935Z,46.30
2023-01-09T08:08:31.703Z,46.30
2023-01-09T08:11:00.682Z,46.30
2023-01-09T08:13:28.358Z,46.30
2023-01-09T08:15:56.065Z,46.20
2023-01-09T08:18:23.814Z,46.20
2023-01-09T08:20:51.471Z,46.30
2023-01-09T08:23:19.212Z,46.30
2023-01-09T08:25:47.098Z,46.90
2023-01-09T08:28:17.001Z,46.30
2023-01-09T08:30:44.674Z,46.30
2023-01-09T08:33:12.362Z,46.20
2023-01-09T08:35:40.080Z,46.20
2023-01-09T08:38:07.861Z,46.20
2023-01-09T08:40:35.590Z,46.20
2023-01-09T08:43:21.000Z,47.00
2023-01-09T08:46:07.805Z,46.40
2023-01-09T08:48:35.544Z,46.40
2023-01-09T08:51:03.215Z,46.30
2023-01-09T08:53:31.407Z,46.30
2023-01-09T08:55:59.122Z,46.30
2023-01-09T08:58:26.795Z,46.40
2023-01-09T09:00:55.812Z,46.40
2023-01-09T09:03:23.539Z,46.30
2023-01-09T09:05:51.281Z,46.90
2023-01-09T09:08:20.140Z,46.30
2023-01-09T09:10:47.874Z,46.40
2023-01-09T09:13:15.563Z,46.40
2023-01-09T09:15:43.386Z,46.40
2023-01-09T09:18:12.423Z,46.40
2023-01-09T09:20:40.083Z,46.30
2023-01-09T09:23:08.533Z,46.40
2023-01-09T09:25:38.163Z,46.30
2023-01-09T09:28:06.124Z,46.30
2023-01-09T09:30:33.993Z,46.30
2023-01-09T09:33:03.765Z,46.30
2023-01-09T09:35:33.999Z,46.30
2023-01-09T09:38:05.210Z,46.40
2023-01-09T09:40:44.050Z,46.30
2023-01-09T09:43:45.257Z,46.30
2023-01-09T09:46:15.876Z,46.30
2023-01-09T09:48:45.743Z,46.30
2023-01-09T09:51:42.730Z,46.30
2023-01-09T09:54:13.834Z,46.30
2023-01-09T09:56:44.465Z,46.30
2023-01-09T09:59:13.835Z,46.30
2023-01-09T10:01:47.619Z,46.30
2023-01-09T10:04:17.223Z,46.30
2023-01-09T10:06:47.011Z,46.30
2023-01-09T10:09:19.489Z,46.30
2023-01-09T10:11:50.643Z,46.30
2023-01-09T10:14:24.015Z,46.40
2023-01-09T10:17:03.285Z,46.40
2023-01-09T10:19:38.320Z,46.50
2023-01-09T10:22:11.785Z,46.50
2023-01-09T10:24:45.697Z,46.50
2023-01-09T10:27:18.037Z,47.10
2023-01-09T10:30:05.198Z,46.50
2023-01-09T10:32:45.370Z,46.50
2023-01-09T10:35:47.646Z,46.50
2023-01-09T10:38:18.663Z,46.00
2023-01-09T10:40:47.836Z,46.10
2023-01-09T10:43:29.389Z,46.10
2023-01-09T10:45:58.659Z,46.10
2023-01-09T10:48:29.175Z,46.00
2023-01-09T10:50:57.083Z,45.90
2023-01-09T10:53:28.322Z,45.80
2023-01-09T10:55:56.839Z,45.40
2023-01-09T10:58:24.553Z,45.50
2023-01-09T11:00:52.239Z,45.30
2023-01-09T11:03:21.516Z,45.40
2023-01-09T11:05:51.734Z,45.50
2023-01-09T11:08:24.042Z,45.30
2023-01-09T11:10:55.056Z,45.40
2023-01-09T11:13:23.624Z,45.50
2023-01-09T11:16:00.782Z,45.40
2023-01-09T11:18:28.521Z,45.50
2023-01-09T11:20:56.226Z,45.60
2023-01-09T11:23:31.810Z,45.40
2023-01-09T11:26:01.832Z,45.40
2023-01-09T11:28:29.727Z,45.50
2023-01-09T11:30:59.705Z,45.60
2023-01-09T11:33:28.406Z,45.50
2023-01-09T11:36:07.902Z,45.70
2023-01-09T11:38:48.276Z,45.60
2023-01-09T11:41:19.622Z,45.90
2023-01-09T11:43:48.251Z,45.60
2023-01-09T11:46:32.231Z,45.70
2023-01-09T11:49:00.539Z,45.60
2023-01-09T11:51:29.148Z,45.60
2023-01-09T11:54:03.373Z,45.40
2023-01-09T11:56:32.438Z,45.40
2023-01-09T11:59:00.286Z,45.40
2023-01-09T12:01:38.928Z,45.30
2023-01-09T12:04:20.981Z,45.40
2023-01-09T12:07:10.213Z,39.30
2023-01-09T12:09:40.669Z,40.30
2023-01-09T12:12:17.572Z,43.20
2023-01-09T12:14:50.476Z,44.40
2023-01-09T12:17:44.563Z,45.30
2023-01-09T12:20:20.426Z,46.70
2023-01-09T12:22:51.497Z,47.40
2023-01-09T12:25:23.094Z,47.40
2023-01-09T12:28:00.427Z,47.90
2023-01-09T12:30:35.753Z,47.70
2023-01-09T12:33:11.667Z,48.50
2023-01-09T12:35:41.476Z,48.30
2023-01-09T12:38:40.142Z,48.50
2023-01-09T12:41:22.765Z,48.50
2023-01-09T12:43:58.704Z,48.50
2023-01-09T12:46:27.250Z,48.70
2023-01-09T12:49:04.879Z,48.80
2023-01-09T12:51:33.828Z,48.70
2023-01-09T12:54:03.963Z,49.00
2023-01-09T12:56:33.790Z,49.20
2023-01-09T12:59:05.891Z,49.40
2023-01-09T13:01:35.224Z,49.20
2023-01-09T13:04:07.073Z,49.10
2023-01-09T13:06:34.817Z,49.80
2023-01-09T13:09:08.090Z,49.30
2023-01-09T13:11:38.503Z,49.30
2023-01-09T13:14:11.098Z,49.70
2023-01-09T13:16:41.764Z,49.70
2023-01-09T13:19:13.643Z,50.20
2023-01-09T13:21:41.336Z,49.70
2023-01-09T13:24:12.822Z,49.70
2023-01-09T13:26:42.823Z,49.80
2023-01-09T13:29:16.284Z,49.80
2023-01-09T13:31:58.506Z,51.90
2023-01-09T13:34:27.189Z,52.00
2023-01-09T13:36:55.363Z,50.90
2023-01-09T13:39:24.078Z,51.20
2023-01-09T13:42:11.838Z,51.60
2023-01-09T13:44:41.091Z,51.60
2023-01-09T13:47:19.508Z,52.10
2023-01-09T13:50:01.593Z,52.50
2023-01-09T13:52:30.808Z,53.50
2023-01-09T13:55:29.969Z,52.50
2023-01-09T13:58:27.962Z,53.40
2023-01-09T14:01:01.758Z,49.60
2023-01-09T14:03:34.605Z,50.40
2023-01-09T14:06:18.920Z,50.70
2023-01-09T14:08:49.976Z,50.90
2023-01-09T14:11:22.085Z,51.10
2023-01-09T14:14:11.575Z,51.20
2023-01-09T14:16:40.581Z,50.90
2023-01-09T14:19:19.400Z,51.00
2023-01-09T14:21:49.082Z,51.00
2023-01-09T14:24:22.219Z,50.50
2023-01-09T14:26:52.261Z,51.10
2023-01-09T14:29:48.896Z,50.80
2023-01-09T14:32:41.641Z,51.20
2023-01-09T14:35:14.271Z,51.50
2023-01-09T14:37:41.968Z,51.20
2023-01-09T14:40:17.181Z,51.20
2023-01-09T14:42:44.863Z,51.20
2023-01-09T14:45:16.594Z,51.20
2023-01-09T14:47:46.022Z,50.90
2023-01-09T14:50:16.863Z,50.50
2023-01-09T14:52:47.061Z,50.80
2023-01-09T14:55:18.503Z,50.80
2023-01-09T14:57:46.166Z,50.80
2023-01-09T15:00:17.708Z,50.90
2023-01-09T15:02:46.736Z,51.00
2023-01-09T15:05:15.958Z,51.10
2023-01-09T15:07:45.309Z,51.70
2023-01-09T15:10:17.179Z,51.10
2023-01-09T15:12:46.061Z,51.10
2023-01-09T15:15:14.016Z,51.20
2023-01-09T15:17:43.241Z,51.20
2023-01-09T15:20:18.655Z,51.30
2023-01-09T15:22:51.157Z,51.40
2023-01-09T15:25:33.857Z,51.60
2023-01-09T15:28:24.988Z,51.60
2023-01-09T15:30:55.355Z,51.60
2023-01-09T15:33:23.046Z,51.40
2023-01-09T15:35:52.362Z,51.50
2023-01-09T15:38:22.673Z,51.40
2023-01-09T15:40:53.801Z,51.50
2023-01-09T15:43:21.504Z,51.50
2023-01-09T15:45:49.273Z,51.60
2023-01-09T15:48:22.426Z,51.50
2023-01-09T15:50:52.813Z,51.50
2023-01-09T15:53:21.726Z,51.70
2023-01-09T15:56:03.813Z,51.50
2023-01-09T15:58:34.486Z,51.50
2023-01-09T16:01:02.453Z,51.50
2023-01-09T16:03:30.289Z,51.40
2023-01-09T16:06:05.369Z,51.40
2023-01-09T16:08:35.048Z,51.30
2023-01-09T16:11:06.430Z,51.60
2023-01-09T16:13:39.032Z,51.60
2023-01-09T16:16:07.257Z,51.70
2023-01-09T16:18:37.144Z,51.70
2023-01-09T16:21:19.475Z,51.60
2023-01-09T16:23:55.238Z,51.70
2023-01-09T16:26:25.247Z,51.80
2023-01-09T16:28:53.136Z,51.60
2023-01-09T16:31:23.682Z,51.70
2023-01-09T16:33:55.485Z,51.70
2023-01-09T16:36:24.474Z,51.70
2023-01-09T16:38:52.145Z,51.70
2023-01-09T16:41:40.045Z,51.70
2023-01-09T16:44:09.461Z,51.70
2023-01-09T16:46:39.255Z,51.80
2023-01-09T16:49:15.688Z,51.70
2023-01-09T16:51:44.650Z,51.70
2023-01-09T16:54:12.408Z,51.70
2023-01-09T16:56:40.147Z,51.70
2023-01-09T16:59:11.967Z,52.40
2023-01-09T17:01:40.242Z,51.80
2023-01-09T17:04:11.820Z,51.70
2023-01-09T17:06:39.677Z,51.70
2023-01-09T17:09:10.347Z,51.70
2023-01-09T17:11:39.350Z,51.70
2023-01-09T17:14:07.239Z,51.70
2023-01-09T17:16:35.660Z,51.70
2023-01-09T17:19:03.391Z,51.70
2023-01-09T17:21:31.237Z,51.70
2023-01-09T17:24:16.507Z,51.60
2023-01-09T17:27:05.162Z,51.70
2023-01-09T17:29:32.839Z,51.70
2023-01-09T17:32:00.707Z,51.70
2023-01-09T17:34:28.474Z,51.60
2023-01-09T17:36:56.321Z,51.60
2023-01-09T17:39:24.065Z,51.60
2023-01-09T17:41:53.542Z,51.60
2023-01-09T17:44:21.220Z,51.40
2023-01-09T17:46:48.859Z,51.60
2023-01-09T17:49:19.278Z,51.50
2023-01-09T17:51:46.987Z,51.50
2023-01-09T17:54:14.830Z,52.10
2023-01-09T17:56:43.683Z,51.50
2023-01-09T17:59:13.994Z,51.40
2023-01-09T18:01:41.785Z,51.40
2023-01-09T18:04:09.562Z,51.40
2023-01-09T18:06:37.468Z,51.40
2023-01-09T18:09:05.262Z,51.40
2023-01-09T18:11:32.900Z,51.30
2023-01-09T18:14:00.590Z,51.30
2023-01-09T18:16:30.190Z,51.30
2023-01-09T18:18:59.338Z,51.20
2023-01-09T18:21:27.681Z,51.20
2023-01-09T18:23:55.553Z,51.20
2023-01-09T18:26:23.211Z,51.20
2023-01-09T18:28:51.915Z,51.10
2023-01-09T18:31:22.595Z,51.10
2023-01-09T18:33:52.586Z,51.20
2023-01-09T18:36:20.825Z,51.20
2023-01-09T18:38:51.014Z,51.30
2023-01-09T18:41:18.663Z,51.30
2023-01-09T18:43:49.578Z,51.30
2023-01-09T18:46:20.438Z,51.30
2023-01-09T18:48:53.197Z,51.30
2023-01-09T18:51:21.123Z,51.40
2023-01-09T18:53:49.025Z,51.30
2023-01-09T18:56:16.980Z,51.40
2023-01-09T18:58:44.665Z,51.30
2023-01-09T19:01:13.486Z,51.30
2023-01-09T19:03:41.288Z,51.40
2023-01-09T19:06:10.824Z,51.30
2023-01-09T19:08:38.530Z,51.40
2023-01-09T19:11:06.499Z,51.40
2023-01-09T19:13:35.183Z,51.40
2023-01-09T19:16:03.193Z,51.40
2023-01-09T19:18:33.256Z,51.30
2023-01-09T19:21:00.971Z,51.40
2023-01-09T19:23:29.969Z,51.30
2023-01-09T19:25:57.878Z,51.30
2023-01-09T19:28:25.592Z,51.30
2023-01-09T19:30:56.814Z,51.30
2023-01-09T19:33:25.199Z,51.30
2023-01-09T19:35:53.263Z,51.20
2023-01-09T19:38:22.398Z,51.30
2023-01-09T19:40:51.647Z,51.30
2023-01-09T19:43:26.460Z,51.20
2023-01-09T19:45:54.404Z,51.30
2023-01-09T19:48:22.307Z,51.20
2023-01-09T19:50:49.999Z,51.20
2023-01-09T19:53:18.293Z,51.20
2023-01-09T19:55:45.949Z,51.20
2023-01-09T19:58:14.940Z,51.20
2023-01-09T20:00:43.370Z,51.20
2023-01-09T20:03:11.122Z,51.30
2023-01-09T20:05:38.807Z,51.30
2023-01-09T20:08:08.404Z,51.20
2023-01-09T20:10:36.035Z,51.30
2023-01-09T20:13:03.697Z,51.20
2023-01-09T20:15:32.736Z,51.20
2023-01-09T20:18:01.844Z,51.20
2023-01-09T20:20:29.665Z,51.20
2023-01-09T20:22:57.343Z,51.20
2023-01-09T20:25:25.113Z,51.20
2023-01-09T20:27:52.998Z,51.20
2023-01-09T20:30:21.463Z,51.20
2023-01-09T20:32:50.886Z,51.20
2023-01-09T20:35:18.955Z,51.20
2023-01-09T20:37:46.842Z,51.20
2023-01-09T20:40:15.451Z,51.20
2023-01-09T20:42:43.534Z,51.20
2023-01-09T20:45:11.896Z,51.30
2023-01-09T20:47:39.562Z,51.20
2023-01-09T20:50:10.288Z,51.40
2023-01-09T20:52:37.962Z,51.40
2023-01-09T20:55:06.338Z,51.50
2023-01-09T20:57:34.089Z,51.60
2023-01-09T21:00:01.816Z,51.60
2023-01-09T21:02:29.526Z,51.70
2023-01-09T21:04:57.264Z,51.80
2023-01-09T21:07:27.283Z,51.70
2023-01-09T21:09:55.032Z,51.80
2023-01-09T21:12:27.565Z,51.90
2023-01-09T21:14:55.556Z,52.00
2023-01-09T21:17:23.500Z,51.90
2023-01-09T21:19:51.149Z,51.80
2023-01-09T21:22:19.071Z,51.80
2023-01-09T21:24:50.869Z,51.90
2023-01-09T21:27:18.646Z,51.80
2023-01-09T21:29:46.565Z,51.80
2023-01-09T21:32:14.456Z,51.80
2023-01-09T21:34:42.354Z,51.70
2023-01-09T21:37:10.145Z,51.60
2023-01-09T21:39:37.852Z,51.60
2023-01-09T21:42:24.448Z,51.40
2023-01-09T21:45:10.003Z,51.60
2023-01-09T21:47:37.699Z,51.50
2023-01-09T21:50:06.185Z,51.60
2023-01-09T21:52:35.898Z,51.50
2023-01-09T21:55:03.636Z,51.40
2023-01-09T21:57:32.668Z,51.30
2023-01-09T22:00:00.354Z,51.80
2023-01-09T22:02:28.149Z,51.10
2023-01-09T22:05:00.022Z,51.00
2023-01-09T22:07:27.744Z,51.00
2023-01-09T22:09:55.472Z,50.90
2023-01-09T22:12:23.152Z,50.80
2023-01-09T22:14:52.227Z,50.70
2023-01-09T22:17:19.980Z,50.60
2023-01-09T22:19:47.691Z,50.50
2023-01-09T22:22:15.581Z,50.40
2023-01-09T22:24:44.110Z,50.30
2023-01-09T22:27:11.899Z,50.30
2023-01-09T22:29:39.859Z,50.30
2023-01-09T22:32:09.821Z,50.20
2023-01-09T22:34:37.552Z,50.10
2023-01-09T22:37:05.379Z,50.00
2023-01-09T22:39:33.065Z,50.40
2023-01-09T22:42:00.866Z,49.60
2023-01-09T22:44:28.600Z,49.50
2023-01-09T22:46:57.362Z,49.40
2023-01-09T22:49:28.206Z,49.30
2023-01-09T22:51:58.051Z,49.10
2023-01-09T22:54:25.801Z,49.00
2023-01-09T22:56:53.511Z,49.00
2023-01-09T22:59:21.227Z,48.90
2023-01-09T23:01:48.935Z,48.90
2023-01-09T23:04:16.799Z,48.70
2023-01-09T23:06:45.858Z,48.60
2023-01-09T23:09:13.561Z,48.60
2023-01-09T23:11:58.914Z,48.50
2023-01-09T23:14:26.623Z,48.30
2023-01-09T23:16:54.477Z,48.40
2023-01-09T23:19:22.206Z,48.20
2023-01-09T23:21:51.223Z,48.20
2023-01-09T23:24:19.373Z,47.90
2023-01-09T23:26:47.599Z,48.10
2023-01-09T23:29:15.412Z,47.90
2023-01-09T23:31:43.176Z,47.90
2023-01-09T23:34:13.792Z,47.90
2023-01-09T23:36:41.598Z,47.70
2023-01-09T23:39:10.797Z,47.60
2023-01-09T23:42:01.434Z,47.40
2023-01-09T23:44:29.269Z,47.30
2023-01-09T23:46:57.081Z,47.20
2023-01-09T23:49:24.781Z,47.10
2023-01-09T23:51:52.590Z,46.90
2023-01-09T23:54:21.632Z,46.80
2023-01-09T23:56:49.472Z,46.80
2023-01-09T23:59:17.946Z,46.60
